sensor_id;sensor_type;location;lat;lon;timestamp;pressure;altitude;pressure_sealevel;temperature;humidity
21359;BME280;13506;50.852;20.632;2023-05-14T00:01:05;98826.34;;;8.39;69.05
21359;BME280;13506;50.852;20.632;2023-05-14T00:03:33;98827.88;;;8.43;69.94
21359;BME280;13506;50.852;20.632;2023-05-14T00:06:02;98820.63;;;8.32;70.88
21359;BME280;13506;50.852;20.632;2023-05-14T00:08:30;98812.03;;;8.30;71.04
21359;BME280;13506;50.852;20.632;2023-05-14T00:10:58;98830.47;;;8.27;71.12
21359;BME280;13506;50.852;20.632;2023-05-14T00:13:26;98823.81;;;8.21;71.87
21359;BME280;13506;50.852;20.632;2023-05-14T00:15:56;98812.03;;;8.30;71.56
21359;BME280;13506;50.852;20.632;2023-05-14T00:18:23;98808.88;;;8.41;69.88
21359;BME280;13506;50.852;20.632;2023-05-14T00:20:51;98812.47;;;8.54;68.40
21359;BME280;13506;50.852;20.632;2023-05-14T00:23:20;98807.84;;;8.59;68.44
21359;BME280;13506;50.852;20.632;2023-05-14T00:25:49;98803.03;;;8.67;68.04
21359;BME280;13506;50.852;20.632;2023-05-14T00:28:17;98799.13;;;8.75;67.06
21359;BME280;13506;50.852;20.632;2023-05-14T00:30:45;98794.75;;;8.75;66.91
21359;BME280;13506;50.852;20.632;2023-05-14T00:33:14;98801.41;;;8.65;68.04
21359;BME280;13506;50.852;20.632;2023-05-14T00:35:43;98795.56;;;8.61;67.53
21359;BME280;13506;50.852;20.632;2023-05-14T00:38:11;98800.44;;;8.51;67.66
21359;BME280;13506;50.852;20.632;2023-05-14T00:40:43;98788.16;;;8.38;69.25
21359;BME280;13506;50.852;20.632;2023-05-14T00:43:16;98786.38;;;8.22;70.45
21359;BME280;13506;50.852;20.632;2023-05-14T00:45:45;98787.31;;;8.05;71.88
21359;BME280;13506;50.852;20.632;2023-05-14T00:48:15;98787.59;;;8.01;72.22
21359;BME280;13506;50.852;20.632;2023-05-14T00:50:44;98785.72;;;8.03;72.12
21359;BME280;13506;50.852;20.632;2023-05-14T00:53:12;98782.69;;;7.95;71.97
21359;BME280;13506;50.852;20.632;2023-05-14T00:55:41;98780.78;;;8.14;71.31
21359;BME280;13506;50.852;20.632;2023-05-14T00:58:11;98788.00;;;8.25;70.42
21359;BME280;13506;50.852;20.632;2023-05-14T01:00:41;98790.84;;;8.20;70.58
21359;BME280;13506;50.852;20.632;2023-05-14T01:03:09;98794.63;;;8.30;70.24
21359;BME280;13506;50.852;20.632;2023-05-14T01:05:46;98794.06;;;8.41;68.31
21359;BME280;13506;50.852;20.632;2023-05-14T01:08:24;98793.22;;;8.41;68.31
21359;BME280;13506;50.852;20.632;2023-05-14T01:11:00;98794.06;;;8.41;67.41
21359;BME280;13506;50.852;20.632;2023-05-14T01:13:37;98793.38;;;8.38;67.64
21359;BME280;13506;50.852;20.632;2023-05-14T01:16:12;98800.94;;;8.26;68.41
21359;BME280;13506;50.852;20.632;2023-05-14T01:18:40;98793.44;;;8.20;68.92
21359;BME280;13506;50.852;20.632;2023-05-14T01:21:35;98800.03;;;8.27;68.36
21359;BME280;13506;50.852;20.632;2023-05-14T01:24:04;98797.44;;;7.96;71.23
21359;BME280;13506;50.852;20.632;2023-05-14T01:26:33;98808.84;;;8.09;70.27
21359;BME280;13506;50.852;20.632;2023-05-14T01:29:10;98808.69;;;8.12;69.58
21359;BME280;13506;50.852;20.632;2023-05-14T01:31:43;98813.72;;;7.99;70.36
21359;BME280;13506;50.852;20.632;2023-05-14T01:34:13;98809.38;;;8.00;70.48
21359;BME280;13506;50.852;20.632;2023-05-14T01:36:43;98805.34;;;8.10;68.57
21359;BME280;13506;50.852;20.632;2023-05-14T01:39:11;98803.31;;;8.15;68.56
21359;BME280;13506;50.852;20.632;2023-05-14T01:41:42;98797.16;;;8.16;67.83
21359;BME280;13506;50.852;20.632;2023-05-14T01:44:11;98793.81;;;8.14;68.45
21359;BME280;13506;50.852;20.632;2023-05-14T01:46:39;98805.34;;;8.10;69.02
21359;BME280;13506;50.852;20.632;2023-05-14T01:49:07;98797.53;;;8.10;69.03
21359;BME280;13506;50.852;20.632;2023-05-14T01:51:35;98800.13;;;8.10;69.04
21359;BME280;13506;50.852;20.632;2023-05-14T01:54:04;98791.63;;;8.06;68.73
21359;BME280;13506;50.852;20.632;2023-05-14T01:56:33;98795.41;;;8.01;68.73
21359;BME280;13506;50.852;20.632;2023-05-14T01:59:01;98799.44;;;8.06;68.65
21359;BME280;13506;50.852;20.632;2023-05-14T02:01:29;98798.75;;;8.03;68.30
21359;BME280;13506;50.852;20.632;2023-05-14T02:03:57;98792.78;;;8.01;68.88
21359;BME280;13506;50.852;20.632;2023-05-14T02:06:25;98795.66;;;7.96;68.67
21359;BME280;13506;50.852;20.632;2023-05-14T02:08:55;98793.63;;;7.85;69.49
21359;BME280;13506;50.852;20.632;2023-05-14T02:11:25;98792.13;;;7.81;69.44
21359;BME280;13506;50.852;20.632;2023-05-14T02:13:53;98788.16;;;7.90;68.34
21359;BME280;13506;50.852;20.632;2023-05-14T02:16:21;98790.28;;;7.83;68.85
21359;BME280;13506;50.852;20.632;2023-05-14T02:18:51;98780.59;;;7.85;68.35
21359;BME280;13506;50.852;20.632;2023-05-14T02:21:19;98789.34;;;7.84;68.37
21359;BME280;13506;50.852;20.632;2023-05-14T02:23:47;98788.56;;;7.82;68.75
21359;BME280;13506;50.852;20.632;2023-05-14T02:26:15;98793.84;;;7.65;70.11
21359;BME280;13506;50.852;20.632;2023-05-14T02:28:45;98785.91;;;7.68;70.13
21359;BME280;13506;50.852;20.632;2023-05-14T02:31:13;98780.69;;;7.68;70.00
21359;BME280;13506;50.852;20.632;2023-05-14T02:33:43;98779.09;;;7.65;70.16
21359;BME280;13506;50.852;20.632;2023-05-14T02:36:11;98773.63;;;7.70;68.86
21359;BME280;13506;50.852;20.632;2023-05-14T02:38:39;98769.25;;;7.70;68.34
21359;BME280;13506;50.852;20.632;2023-05-14T02:41:07;98766.81;;;7.67;69.32
21359;BME280;13506;50.852;20.632;2023-05-14T02:43:35;98773.84;;;7.49;71.18
21359;BME280;13506;50.852;20.632;2023-05-14T02:46:05;98778.28;;;7.47;71.21
21359;BME280;13506;50.852;20.632;2023-05-14T02:48:32;98770.22;;;7.19;72.63
21359;BME280;13506;50.852;20.632;2023-05-14T02:51:01;98782.34;;;7.20;74.18
21359;BME280;13506;50.852;20.632;2023-05-14T02:53:29;98791.75;;;7.05;75.82
21359;BME280;13506;50.852;20.632;2023-05-14T02:55:57;98784.78;;;7.05;75.87
21359;BME280;13506;50.852;20.632;2023-05-14T02:58:25;98782.75;;;6.95;76.77
21359;BME280;13506;50.852;20.632;2023-05-14T03:00:53;98777.75;;;6.73;78.06
21359;BME280;13506;50.852;20.632;2023-05-14T03:03:22;98786.41;;;6.91;76.62
21359;BME280;13506;50.852;20.632;2023-05-14T03:05:51;98773.34;;;6.92;77.67
21359;BME280;13506;50.852;20.632;2023-05-14T03:08:19;98787.81;;;6.98;76.88
21359;BME280;13506;50.852;20.632;2023-05-14T03:10:47;98783.69;;;6.94;77.74
21359;BME280;13506;50.852;20.632;2023-05-14T03:13:15;98777.06;;;7.04;76.84
21359;BME280;13506;50.852;20.632;2023-05-14T03:15:46;98779.59;;;7.05;76.94
21359;BME280;13506;50.852;20.632;2023-05-14T03:18:14;98782.97;;;7.07;77.07
21359;BME280;13506;50.852;20.632;2023-05-14T03:20:43;98775.59;;;7.16;75.40
21359;BME280;13506;50.852;20.632;2023-05-14T03:23:12;98782.53;;;7.33;73.80
21359;BME280;13506;50.852;20.632;2023-05-14T03:25:40;98776.84;;;7.42;73.96
21359;BME280;13506;50.852;20.632;2023-05-14T03:28:08;98773.84;;;7.49;73.28
21359;BME280;13506;50.852;20.632;2023-05-14T03:30:36;98778.22;;;7.49;73.62
21359;BME280;13506;50.852;20.632;2023-05-14T03:33:04;98781.16;;;7.59;73.35
21359;BME280;13506;50.852;20.632;2023-05-14T03:35:33;98783.94;;;7.71;72.55
21359;BME280;13506;50.852;20.632;2023-05-14T03:38:02;98764.63;;;7.76;72.38
21359;BME280;13506;50.852;20.632;2023-05-14T03:40:30;98763.78;;;7.75;72.46
21359;BME280;13506;50.852;20.632;2023-05-14T03:42:58;98770.09;;;7.71;72.35
21359;BME280;13506;50.852;20.632;2023-05-14T03:45:26;98764.63;;;7.76;73.75
21359;BME280;13506;50.852;20.632;2023-05-14T03:47:58;98766.56;;;7.88;72.28
21359;BME280;13506;50.852;20.632;2023-05-14T03:50:26;98763.56;;;7.96;72.37
21359;BME280;13506;50.852;20.632;2023-05-14T03:52:54;98761.59;;;7.67;73.44
21359;BME280;13506;50.852;20.632;2023-05-14T03:55:24;98762.13;;;7.74;74.82
21359;BME280;13506;50.852;20.632;2023-05-14T03:57:52;98765.63;;;7.57;74.05
21359;BME280;13506;50.852;20.632;2023-05-14T04:00:20;98756.66;;;7.79;74.75
21359;BME280;13506;50.852;20.632;2023-05-14T04:02:48;98769.69;;;7.95;74.66
21359;BME280;13506;50.852;20.632;2023-05-14T04:05:16;98770.94;;;8.03;74.80
21359;BME280;13506;50.852;20.632;2023-05-14T04:07:45;98769.34;;;8.01;74.26
21359;BME280;13506;50.852;20.632;2023-05-14T04:10:14;98763.97;;;8.04;74.88
21359;BME280;13506;50.852;20.632;2023-05-14T04:12:43;98767.75;;;8.14;74.57
21359;BME280;13506;50.852;20.632;2023-05-14T04:15:11;98759.75;;;8.01;74.02
21359;BME280;13506;50.852;20.632;2023-05-14T04:17:39;98765.72;;;8.19;73.77
21359;BME280;13506;50.852;20.632;2023-05-14T04:20:08;98761.09;;;8.24;74.11
21359;BME280;13506;50.852;20.632;2023-05-14T04:22:36;98759.88;;;8.00;74.68
21359;BME280;13506;50.852;20.632;2023-05-14T04:25:05;98755.38;;;8.18;75.27
21359;BME280;13506;50.852;20.632;2023-05-14T04:27:33;98759.06;;;8.29;74.72
21359;BME280;13506;50.852;20.632;2023-05-14T04:30:03;98753.88;;;8.29;75.69
21359;BME280;13506;50.852;20.632;2023-05-14T04:32:31;98757.47;;;8.43;75.61
21359;BME280;13506;50.852;20.632;2023-05-14T04:35:00;98757.56;;;8.41;74.86
21359;BME280;13506;50.852;20.632;2023-05-14T04:37:27;98753.03;;;8.45;75.08
21359;BME280;13506;50.852;20.632;2023-05-14T04:39:56;98751.03;;;8.64;75.33
21359;BME280;13506;50.852;20.632;2023-05-14T04:42:24;98754.34;;;8.82;75.33
21359;BME280;13506;50.852;20.632;2023-05-14T04:44:52;98748.84;;;8.87;74.94
21359;BME280;13506;50.852;20.632;2023-05-14T04:47:21;98746.91;;;9.05;74.22
21359;BME280;13506;50.852;20.632;2023-05-14T04:49:50;98747.00;;;9.18;73.95
21359;BME280;13506;50.852;20.632;2023-05-14T04:52:17;98743.94;;;9.25;73.02
21359;BME280;13506;50.852;20.632;2023-05-14T04:54:46;98746.84;;;9.35;72.09
21359;BME280;13506;50.852;20.632;2023-05-14T04:57:13;98738.53;;;9.43;70.67
21359;BME280;13506;50.852;20.632;2023-05-14T04:59:42;98730.69;;;9.43;70.95
21359;BME280;13506;50.852;20.632;2023-05-14T05:02:10;98728.53;;;9.49;71.56
21359;BME280;13506;50.852;20.632;2023-05-14T05:04:39;98720.16;;;9.44;71.99
21359;BME280;13506;50.852;20.632;2023-05-14T05:07:07;98717.34;;;9.47;72.34
21359;BME280;13506;50.852;20.632;2023-05-14T05:09:35;98716.22;;;9.66;72.44
21359;BME280;13506;50.852;20.632;2023-05-14T05:12:04;98714.66;;;9.49;72.81
21359;BME280;13506;50.852;20.632;2023-05-14T05:14:32;98713.78;;;9.77;71.97
21359;BME280;13506;50.852;20.632;2023-05-14T05:17:00;98710.44;;;9.75;71.60
21359;BME280;13506;50.852;20.632;2023-05-14T05:19:28;98718.66;;;9.54;72.31
21359;BME280;13506;50.852;20.632;2023-05-14T05:21:57;98713.38;;;9.42;72.65
21359;BME280;13506;50.852;20.632;2023-05-14T05:24:25;98714.66;;;9.49;72.33
21359;BME280;13506;50.852;20.632;2023-05-14T05:26:53;98712.69;;;9.67;72.18
21359;BME280;13506;50.852;20.632;2023-05-14T05:29:22;98713.59;;;9.80;72.84
21359;BME280;13506;50.852;20.632;2023-05-14T05:31:50;98715.59;;;10.04;72.00
21359;BME280;13506;50.852;20.632;2023-05-14T05:34:18;98722.03;;;10.25;70.30
21359;BME280;13506;50.852;20.632;2023-05-14T05:36:46;98718.25;;;10.57;71.34
21359;BME280;13506;50.852;20.632;2023-05-14T05:39:15;98723.19;;;10.74;69.70
21359;BME280;13506;50.852;20.632;2023-05-14T05:41:43;98714.34;;;11.02;68.17
21359;BME280;13506;50.852;20.632;2023-05-14T05:44:11;98723.88;;;11.29;67.68
21359;BME280;13506;50.852;20.632;2023-05-14T05:46:39;98720.47;;;11.52;66.90
21359;BME280;13506;50.852;20.632;2023-05-14T05:49:07;98716.19;;;11.88;66.42
21359;BME280;13506;50.852;20.632;2023-05-14T05:51:35;98714.13;;;11.81;63.16
21359;BME280;13506;50.852;20.632;2023-05-14T05:54:03;98720.31;;;11.43;63.33
21359;BME280;13506;50.852;20.632;2023-05-14T05:56:33;98721.25;;;11.16;64.79
21359;BME280;13506;50.852;20.632;2023-05-14T05:59:01;98721.44;;;11.00;65.86
21359;BME280;13506;50.852;20.632;2023-05-14T06:01:29;98722.38;;;10.86;65.52
21359;BME280;13506;50.852;20.632;2023-05-14T06:03:57;98704.88;;;11.00;66.44
21359;BME280;13506;50.852;20.632;2023-05-14T06:06:27;98710.38;;;11.22;65.70
21359;BME280;13506;50.852;20.632;2023-05-14T06:08:55;98707.59;;;11.49;64.88
21359;BME280;13506;50.852;20.632;2023-05-14T06:11:23;98708.59;;;11.72;63.40
21359;BME280;13506;50.852;20.632;2023-05-14T06:13:53;98708.63;;;11.60;63.07
21359;BME280;13506;50.852;20.632;2023-05-14T06:16:21;98702.47;;;11.85;63.15
21359;BME280;13506;50.852;20.632;2023-05-14T06:18:49;98700.28;;;12.03;63.29
21359;BME280;13506;50.852;20.632;2023-05-14T06:21:18;98706.28;;;12.29;61.33
21359;BME280;13506;50.852;20.632;2023-05-14T06:23:46;98706.63;;;12.48;61.20
21359;BME280;13506;50.852;20.632;2023-05-14T06:26:14;98699.75;;;12.34;60.34
21359;BME280;13506;50.852;20.632;2023-05-14T06:28:43;98701.75;;;12.31;59.87
21359;BME280;13506;50.852;20.632;2023-05-14T06:31:12;98708.44;;;12.35;59.46
21359;BME280;13506;50.852;20.632;2023-05-14T06:33:40;98704.63;;;12.28;58.03
21359;BME280;13506;50.852;20.632;2023-05-14T06:36:09;98700.41;;;12.49;58.03
21359;BME280;13506;50.852;20.632;2023-05-14T06:38:37;98707.78;;;12.91;57.13
21359;BME280;13506;50.852;20.632;2023-05-14T06:41:05;98696.19;;;12.93;56.08
21359;BME280;13506;50.852;20.632;2023-05-14T06:43:33;98697.88;;;12.94;55.23
21359;BME280;13506;50.852;20.632;2023-05-14T06:46:01;98706.47;;;12.96;55.00
21359;BME280;13506;50.852;20.632;2023-05-14T06:48:30;98699.19;;;12.89;54.76
21359;BME280;13506;50.852;20.632;2023-05-14T06:50:59;98705.81;;;12.70;55.67
21359;BME280;13506;50.852;20.632;2023-05-14T06:53:28;98695.38;;;12.93;54.93
21359;BME280;13506;50.852;20.632;2023-05-14T06:55:56;98686.63;;;12.92;55.09
21359;BME280;13506;50.852;20.632;2023-05-14T06:58:24;98693.31;;;12.85;54.55
21359;BME280;13506;50.852;20.632;2023-05-14T07:00:53;98700.16;;;12.99;55.24
21359;BME280;13506;50.852;20.632;2023-05-14T07:03:20;98687.34;;;12.94;54.47
21359;BME280;13506;50.852;20.632;2023-05-14T07:05:50;98694.44;;;13.28;55.49
21359;BME280;13506;50.852;20.632;2023-05-14T07:08:19;98688.59;;;13.47;53.82
21359;BME280;13506;50.852;20.632;2023-05-14T07:10:47;98699.59;;;13.52;52.85
21359;BME280;13506;50.852;20.632;2023-05-14T07:13:14;98678.72;;;13.39;53.13
21359;BME280;13506;50.852;20.632;2023-05-14T07:15:42;98676.50;;;13.22;52.81
21359;BME280;13506;50.852;20.632;2023-05-14T07:18:11;98682.75;;;13.43;52.94
21359;BME280;13506;50.852;20.632;2023-05-14T07:20:39;98672.19;;;13.66;53.66
21359;BME280;13506;50.852;20.632;2023-05-14T07:23:08;98674.13;;;13.64;52.60
21359;BME280;13506;50.852;20.632;2023-05-14T07:25:36;98690.16;;;13.61;52.82
21359;BME280;13506;50.852;20.632;2023-05-14T07:28:04;98676.59;;;13.76;53.49
21359;BME280;13506;50.852;20.632;2023-05-14T07:30:33;98690.09;;;13.83;53.60
21359;BME280;13506;50.852;20.632;2023-05-14T07:33:00;98686.03;;;14.23;51.45
21359;BME280;13506;50.852;20.632;2023-05-14T07:35:28;98694.09;;;14.10;51.33
21359;BME280;13506;50.852;20.632;2023-05-14T07:37:56;98678.09;;;14.34;51.33
21359;BME280;13506;50.852;20.632;2023-05-14T07:40:26;98684.88;;;14.15;51.62
21359;BME280;13506;50.852;20.632;2023-05-14T07:42:54;98683.94;;;14.37;51.36
21359;BME280;13506;50.852;20.632;2023-05-14T07:45:22;98677.47;;;14.63;51.75
21359;BME280;13506;50.852;20.632;2023-05-14T07:47:50;98675.06;;;14.38;51.47
21359;BME280;13506;50.852;20.632;2023-05-14T07:50:18;98677.59;;;14.40;51.76
21359;BME280;13506;50.852;20.632;2023-05-14T07:52:47;98690.19;;;14.36;51.34
21359;BME280;13506;50.852;20.632;2023-05-14T07:55:15;98670.16;;;14.45;51.69
21359;BME280;13506;50.852;20.632;2023-05-14T07:57:44;98685.31;;;14.53;51.24
21359;BME280;13506;50.852;20.632;2023-05-14T08:00:14;98679.22;;;14.73;51.11
21359;BME280;13506;50.852;20.632;2023-05-14T08:02:42;98676.88;;;14.80;50.82
21359;BME280;13506;50.852;20.632;2023-05-14T08:05:10;98695.16;;;15.24;49.93
21359;BME280;13506;50.852;20.632;2023-05-14T08:07:39;98659.63;;;15.58;49.49
21359;BME280;13506;50.852;20.632;2023-05-14T08:10:08;98659.44;;;15.50;48.54
21359;BME280;13506;50.852;20.632;2023-05-14T08:12:36;98669.81;;;15.32;49.21
21359;BME280;13506;50.852;20.632;2023-05-14T08:15:08;98678.47;;;15.23;50.10
21359;BME280;13506;50.852;20.632;2023-05-14T08:17:36;98687.31;;;14.81;49.94
21359;BME280;13506;50.852;20.632;2023-05-14T08:20:06;98690.88;;;14.80;50.15
21359;BME280;13506;50.852;20.632;2023-05-14T08:22:35;98683.38;;;14.76;50.54
21359;BME280;13506;50.852;20.632;2023-05-14T08:25:04;98676.16;;;14.99;50.11
21359;BME280;13506;50.852;20.632;2023-05-14T08:27:32;98670.66;;;15.12;50.67
21359;BME280;13506;50.852;20.632;2023-05-14T08:30:00;98670.66;;;15.33;50.26
21359;BME280;13506;50.852;20.632;2023-05-14T08:32:29;98674.28;;;15.41;49.53
21359;BME280;13506;50.852;20.632;2023-05-14T08:34:58;98677.38;;;15.56;49.47
21359;BME280;13506;50.852;20.632;2023-05-14T08:37:26;98670.88;;;15.60;49.19
21359;BME280;13506;50.852;20.632;2023-05-14T08:39:54;98691.13;;;15.70;48.97
21359;BME280;13506;50.852;20.632;2023-05-14T08:42:24;98683.72;;;15.44;49.49
21359;BME280;13506;50.852;20.632;2023-05-14T08:44:59;98679.56;;;15.20;49.07
21359;BME280;13506;50.852;20.632;2023-05-14T08:47:30;98688.16;;;15.34;49.49
21359;BME280;13506;50.852;20.632;2023-05-14T08:50:02;98686.38;;;15.23;49.83
21359;BME280;13506;50.852;20.632;2023-05-14T08:52:30;98665.72;;;15.49;49.39
21359;BME280;13506;50.852;20.632;2023-05-14T08:55:02;98659.91;;;15.65;49.46
21359;BME280;13506;50.852;20.632;2023-05-14T08:57:32;98663.41;;;15.85;48.98
21359;BME280;13506;50.852;20.632;2023-05-14T09:00:01;98639.66;;;16.63;47.30
21359;BME280;13506;50.852;20.632;2023-05-14T09:02:35;98653.03;;;16.22;48.27
21359;BME280;13506;50.852;20.632;2023-05-14T09:05:04;98650.25;;;16.24;47.30
21359;BME280;13506;50.852;20.632;2023-05-14T09:07:32;98635.16;;;16.73;47.02
21359;BME280;13506;50.852;20.632;2023-05-14T09:10:01;98637.03;;;17.10;46.06
21359;BME280;13506;50.852;20.632;2023-05-14T09:12:29;98632.22;;;17.23;45.86
21359;BME280;13506;50.852;20.632;2023-05-14T09:14:58;98639.28;;;17.60;45.08
21359;BME280;13506;50.852;20.632;2023-05-14T09:17:26;98626.34;;;17.30;44.89
21359;BME280;13506;50.852;20.632;2023-05-14T09:19:56;98627.81;;;17.14;46.44
21359;BME280;13506;50.852;20.632;2023-05-14T09:22:25;98636.50;;;16.97;46.88
21359;BME280;13506;50.852;20.632;2023-05-14T09:25:05;98624.44;;;17.50;45.12
21359;BME280;13506;50.852;20.632;2023-05-14T09:27:35;98627.97;;;17.03;45.07
21359;BME280;13506;50.852;20.632;2023-05-14T09:30:09;98626.69;;;17.07;45.72
21359;BME280;13506;50.852;20.632;2023-05-14T09:32:37;98618.75;;;17.17;45.71
21359;BME280;13506;50.852;20.632;2023-05-14T09:35:11;98615.81;;;17.20;45.61
21359;BME280;13506;50.852;20.632;2023-05-14T09:37:41;98625.16;;;16.77;46.17
21359;BME280;13506;50.852;20.632;2023-05-14T09:40:11;98603.28;;;17.22;45.23
21359;BME280;13506;50.852;20.632;2023-05-14T09:42:39;98616.56;;;17.12;45.39
21359;BME280;13506;50.852;20.632;2023-05-14T09:45:08;98605.25;;;17.65;45.00
21359;BME280;13506;50.852;20.632;2023-05-14T09:47:36;98602.28;;;16.95;45.45
21359;BME280;13506;50.852;20.632;2023-05-14T09:50:06;98587.22;;;17.06;45.08
21359;BME280;13506;50.852;20.632;2023-05-14T09:52:36;98600.81;;;16.73;45.88
21359;BME280;13506;50.852;20.632;2023-05-14T09:55:05;98594.16;;;17.07;45.93
21359;BME280;13506;50.852;20.632;2023-05-14T09:57:33;98586.94;;;17.09;45.49
21359;BME280;13506;50.852;20.632;2023-05-14T10:00:02;98594.41;;;17.13;44.70
21359;BME280;13506;50.852;20.632;2023-05-14T10:02:35;98589.75;;;17.53;44.05
21359;BME280;13506;50.852;20.632;2023-05-14T10:05:05;98595.03;;;17.53;43.45
21359;BME280;13506;50.852;20.632;2023-05-14T10:07:40;98590.00;;;17.95;43.07
21359;BME280;13506;50.852;20.632;2023-05-14T10:10:14;98575.34;;;18.01;42.93
21359;BME280;13506;50.852;20.632;2023-05-14T10:12:45;98610.03;;;17.98;43.53
21359;BME280;13506;50.852;20.632;2023-05-14T10:15:19;98578.00;;;18.27;42.88
21359;BME280;13506;50.852;20.632;2023-05-14T10:17:51;98567.97;;;18.13;42.74
21359;BME280;13506;50.852;20.632;2023-05-14T10:20:24;98567.97;;;18.13;43.39
21359;BME280;13506;50.852;20.632;2023-05-14T10:22:56;98574.41;;;17.56;43.29
21359;BME280;13506;50.852;20.632;2023-05-14T10:25:25;98566.34;;;17.30;44.93
21359;BME280;13506;50.852;20.632;2023-05-14T10:27:53;98561.97;;;17.39;44.09
21359;BME280;13506;50.852;20.632;2023-05-14T10:30:22;98565.16;;;17.24;44.25
21359;BME280;13506;50.852;20.632;2023-05-14T10:33:05;98550.16;;;17.15;44.09
21359;BME280;13506;50.852;20.632;2023-05-14T10:35:55;98565.38;;;17.31;42.56
21359;BME280;13506;50.852;20.632;2023-05-14T10:38:27;98559.91;;;17.60;42.72
21359;BME280;13506;50.852;20.632;2023-05-14T10:41:00;98541.69;;;17.93;42.70
21359;BME280;13506;50.852;20.632;2023-05-14T10:43:29;98535.84;;;18.68;41.28
21359;BME280;13506;50.852;20.632;2023-05-14T10:45:58;98531.88;;;18.64;40.49
21359;BME280;13506;50.852;20.632;2023-05-14T10:48:27;98535.72;;;18.17;41.30
21359;BME280;13506;50.852;20.632;2023-05-14T10:50:56;98524.56;;;18.66;41.54
21359;BME280;13506;50.852;20.632;2023-05-14T10:53:32;98524.13;;;18.71;42.02
21359;BME280;13506;50.852;20.632;2023-05-14T10:56:03;98529.50;;;18.53;42.38
21359;BME280;13506;50.852;20.632;2023-05-14T10:58:33;98515.88;;;18.74;42.35
21359;BME280;13506;50.852;20.632;2023-05-14T11:01:02;98520.25;;;18.04;41.78
21359;BME280;13506;50.852;20.632;2023-05-14T11:03:32;98526.91;;;18.09;42.97
21359;BME280;13506;50.852;20.632;2023-05-14T11:06:06;98530.84;;;17.69;43.36
21359;BME280;13506;50.852;20.632;2023-05-14T11:08:36;98530.47;;;17.28;44.44
21359;BME280;13506;50.852;20.632;2023-05-14T11:11:05;98521.50;;;17.20;44.83
21359;BME280;13506;50.852;20.632;2023-05-14T11:13:32;98512.59;;;17.39;44.38
21359;BME280;13506;50.852;20.632;2023-05-14T11:16:02;98512.66;;;17.02;44.33
21359;BME280;13506;50.852;20.632;2023-05-14T11:18:31;98515.75;;;16.97;44.58
21359;BME280;13506;50.852;20.632;2023-05-14T11:21:01;98497.25;;;16.97;45.66
21359;BME280;13506;50.852;20.632;2023-05-14T11:23:29;98485.31;;;16.93;45.29
21359;BME280;13506;50.852;20.632;2023-05-14T11:25:58;98488.50;;;16.97;44.58
21359;BME280;13506;50.852;20.632;2023-05-14T11:28:27;98496.34;;;17.52;44.51
21359;BME280;13506;50.852;20.632;2023-05-14T11:30:55;98484.28;;;17.94;43.00
21359;BME280;13506;50.852;20.632;2023-05-14T11:33:27;98483.69;;;18.34;42.55
21359;BME280;13506;50.852;20.632;2023-05-14T11:35:55;98471.56;;;18.92;40.93
21359;BME280;13506;50.852;20.632;2023-05-14T11:38:22;98466.13;;;19.18;40.52
21359;BME280;13506;50.852;20.632;2023-05-14T11:40:51;98464.38;;;18.84;40.47
21359;BME280;13506;50.852;20.632;2023-05-14T11:43:21;98450.38;;;19.25;40.60
21359;BME280;13506;50.852;20.632;2023-05-14T11:45:50;98458.44;;;18.91;40.07
21359;BME280;13506;50.852;20.632;2023-05-14T11:48:19;98444.56;;;19.05;40.35
21359;BME280;13506;50.852;20.632;2023-05-14T11:50:48;98447.28;;;18.71;39.72
21359;BME280;13506;50.852;20.632;2023-05-14T11:53:17;98438.75;;;19.10;40.01
21359;BME280;13506;50.852;20.632;2023-05-14T11:55:46;98439.28;;;19.38;40.02
21359;BME280;13506;50.852;20.632;2023-05-14T11:58:14;98462.81;;;18.31;40.82
21359;BME280;13506;50.852;20.632;2023-05-14T12:00:48;98430.41;;;18.37;40.62
21359;BME280;13506;50.852;20.632;2023-05-14T12:03:17;98430.75;;;18.42;40.66
21359;BME280;13506;50.852;20.632;2023-05-14T12:05:57;98432.28;;;18.53;40.68
21359;BME280;13506;50.852;20.632;2023-05-14T12:08:27;98442.44;;;17.97;41.44
21359;BME280;13506;50.852;20.632;2023-05-14T12:10:57;98444.06;;;17.72;41.11
21359;BME280;13506;50.852;20.632;2023-05-14T12:13:26;98446.84;;;17.89;41.12
21359;BME280;13506;50.852;20.632;2023-05-14T12:15:57;98429.47;;;18.55;41.13
21359;BME280;13506;50.852;20.632;2023-05-14T12:18:28;98429.56;;;18.29;41.25
21359;BME280;13506;50.852;20.632;2023-05-14T12:21:00;98428.59;;;18.80;41.34
21359;BME280;13506;50.852;20.632;2023-05-14T12:23:30;98417.41;;;19.11;40.03
21359;BME280;13506;50.852;20.632;2023-05-14T12:26:01;98425.63;;;18.83;39.78
21359;BME280;13506;50.852;20.632;2023-05-14T12:28:32;98421.81;;;18.78;40.29
21359;BME280;13506;50.852;20.632;2023-05-14T12:31:02;98418.22;;;19.03;40.28
21359;BME280;13506;50.852;20.632;2023-05-14T12:33:30;98410.94;;;19.14;39.75
21359;BME280;13506;50.852;20.632;2023-05-14T12:35:58;98402.47;;;19.18;39.55
21359;BME280;13506;50.852;20.632;2023-05-14T12:38:27;98404.63;;;19.47;39.67
21359;BME280;13506;50.852;20.632;2023-05-14T12:40:55;98388.22;;;19.36;39.20
21359;BME280;13506;50.852;20.632;2023-05-14T12:43:23;98396.84;;;19.21;38.80
21359;BME280;13506;50.852;20.632;2023-05-14T12:45:55;98392.88;;;19.09;39.52
21359;BME280;13506;50.852;20.632;2023-05-14T12:48:25;98394.53;;;19.26;39.26
21359;BME280;13506;50.852;20.632;2023-05-14T12:50:53;98388.69;;;18.82;39.45
21359;BME280;13506;50.852;20.632;2023-05-14T12:53:21;98392.56;;;18.61;40.67
21359;BME280;13506;50.852;20.632;2023-05-14T12:55:49;98388.19;;;18.86;40.52
21359;BME280;13506;50.852;20.632;2023-05-14T12:58:17;98389.69;;;18.89;40.21
21359;BME280;13506;50.852;20.632;2023-05-14T13:00:45;98388.91;;;18.54;40.65
21359;BME280;13506;50.852;20.632;2023-05-14T13:03:12;98381.09;;;18.44;39.45
21359;BME280;13506;50.852;20.632;2023-05-14T13:05:42;98359.84;;;18.87;38.66